Time;durP1;ratioP1;P1;durP2;ratioP2;P2;SDS_P1;SDS_P2;PMS_P1;PMS_P2;Temp;Humidity;BMP_temperature;BMP_pressure;BME280_temperature;BME280_humidity;BME280_pressure;Samples;Min_cycle;Max_cycle;Signal;HPM_P1;HPM_P2
2021/12/31 00:00:06;;;;;;;11.70;2.85;;;13.20;99.90;;;;;;5055644;28;20079;-71
2021/12/31 00:02:32;;;;;;;10.50;2.63;;;13.20;99.90;;;;;;5055272;28;20047;-71
2021/12/31 00:04:58;;;;;;;9.10;2.78;;;13.20;99.90;;;;;;5055233;28;20048;-71
2021/12/31 00:07:23;;;;;;;11.93;2.90;;;13.30;99.90;;;;;;5056208;28;20044;-73
2021/12/31 00:09:49;;;;;;;12.05;2.88;;;13.30;99.90;;;;;;5056002;28;20048;-71
2021/12/31 00:12:15;;;;;;;11.18;2.53;;;13.30;99.90;;;;;;5054336;28;20376;-73
2021/12/31 00:14:40;;;;;;;12.85;3.10;;;13.30;99.90;;;;;;5055484;28;20041;-71
2021/12/31 00:17:07;;;;;;;13.38;3.20;;;13.30;99.90;;;;;;5055308;28;20370;-71
2021/12/31 00:19:38;;;;;;;12.07;2.63;;;13.30;99.90;;;;;;5054885;28;20047;-71
2021/12/31 00:22:23;;;;;;;11.40;3.00;;;13.30;99.90;;;;;;5055328;28;20486;-71
2021/12/31 00:24:49;;;;;;;13.38;2.80;;;13.20;99.90;;;;;;5072858;28;20443;-70
2021/12/31 00:27:16;;;;;;;12.85;2.50;;;13.20;99.90;;;;;;5055069;28;20509;-72
2021/12/31 00:29:41;;;;;;;10.65;2.90;;;13.20;99.90;;;;;;5038492;28;20051;-72
2021/12/31 00:32:07;;;;;;;10.80;3.20;;;13.20;99.90;;;;;;5038770;28;20128;-71
2021/12/31 00:34:32;;;;;;;13.65;3.00;;;13.20;99.90;;;;;;5055546;28;20425;-71
2021/12/31 00:36:58;;;;;;;10.98;3.38;;;13.30;99.90;;;;;;5058991;28;20040;-71
2021/12/31 00:39:24;;;;;;;13.05;2.90;;;13.20;99.90;;;;;;5058985;28;20048;-71
2021/12/31 00:41:49;;;;;;;8.48;2.70;;;13.30;99.90;;;;;;5059238;28;20036;-72
2021/12/31 00:44:15;;;;;;;8.60;2.72;;;13.20;99.90;;;;;;5058643;28;20500;-71
2021/12/31 00:46:41;;;;;;;15.63;2.97;;;13.30;99.90;;;;;;5058652;28;20044;-72
2021/12/31 00:49:07;;;;;;;13.07;2.72;;;13.20;99.90;;;;;;5058850;28;20036;-71
2021/12/31 00:51:33;;;;;;;11.77;3.08;;;13.30;99.90;;;;;;5042411;28;20055;-71
2021/12/31 00:53:59;;;;;;;13.25;3.30;;;13.30;99.90;;;;;;5058777;28;20475;-71
2021/12/31 00:56:25;;;;;;;10.77;3.28;;;13.30;99.90;;;;;;5058808;28;20072;-71
2021/12/31 00:58:51;;;;;;;12.93;3.75;;;13.30;99.90;;;;;;5058565;28;20079;-72
2021/12/31 01:01:19;;;;;;;6.22;2.83;;;13.30;99.90;;;;;;5058287;28;20099;-71
2021/12/31 01:03:46;;;;;;;10.05;2.72;;;13.40;99.90;;;;;;5040946;28;20063;-72
2021/12/31 01:06:12;;;;;;;11.05;3.28;;;13.40;99.90;;;;;;5048177;28;20036;-71
2021/12/31 01:08:38;;;;;;;11.05;3.10;;;13.40;99.90;;;;;;5058898;28;20068;-72
2021/12/31 01:11:05;;;;;;;14.63;4.15;;;13.40;99.90;;;;;;5058383;28;20446;-71
2021/12/31 01:13:50;;;;;;;8.65;3.20;;;13.40;99.90;;;;;;5058356;28;20044;-72
2021/12/31 01:16:18;;;;;;;11.50;3.50;;;13.40;99.90;;;;;;5058295;28;20435;-71
2021/12/31 01:21:23;;;;;;;15.85;3.72;;;13.40;99.90;;;;;;5058345;28;20080;-71
2021/12/31 01:23:49;;;;;;;12.90;3.40;;;13.40;99.90;;;;;;5057415;28;20036;-72
2021/12/31 01:26:15;;;;;;;13.73;3.08;;;13.40;99.90;;;;;;5057837;28;20557;-71
2021/12/31 01:28:41;;;;;;;12.27;3.45;;;13.40;99.90;;;;;;5058468;28;20119;-72
2021/12/31 01:31:07;;;;;;;12.93;3.40;;;13.40;99.90;;;;;;5058359;28;20044;-71
2021/12/31 01:33:33;;;;;;;11.43;3.30;;;13.40;99.90;;;;;;5057925;28;20043;-72
2021/12/31 01:35:59;;;;;;;10.18;3.13;;;13.50;99.90;;;;;;5058150;28;20487;-72
2021/12/31 01:38:24;;;;;;;11.52;3.08;;;13.50;99.90;;;;;;5057896;28;20036;-71
2021/12/31 01:40:51;;;;;;;15.52;3.13;;;13.40;99.90;;;;;;5057507;28;20033;-72
2021/12/31 01:43:18;;;;;;;11.50;3.17;;;13.50;99.90;;;;;;5057836;28;20047;-71
2021/12/31 01:45:47;;;;;;;12.02;3.25;;;13.40;99.90;;;;;;5041194;28;20044;-72
2021/12/31 01:48:33;;;;;;;14.98;4.03;;;13.40;99.90;;;;;;5057801;28;20090;-71
2021/12/31 01:50:59;;;;;;;10.23;3.80;;;13.40;99.90;;;;;;5057741;28;20079;-71
2021/12/31 01:53:28;;;;;;;12.60;3.60;;;13.40;99.90;;;;;;5056548;28;20044;-71
2021/12/31 01:56:00;;;;;;;8.60;3.58;;;13.40;99.90;;;;;;5057910;28;20135;-72
2021/12/31 01:58:27;;;;;;;13.80;4.38;;;13.40;99.90;;;;;;5057430;28;20102;-72
2021/12/31 02:00:54;;;;;;;10.32;3.78;;;13.40;99.90;;;;;;5057317;28;20070;-71
2021/12/31 02:03:21;;;;;;;6.78;3.00;;;13.50;99.90;;;;;;5057431;28;20098;-72
2021/12/31 02:05:48;;;;;;;9.60;3.80;;;13.50;99.90;;;;;;5040525;28;20394;-71
2021/12/31 02:08:15;;;;;;;10.52;4.10;;;13.40;99.90;;;;;;5057654;28;20045;-72
2021/12/31 02:10:41;;;;;;;17.60;4.20;;;13.50;99.90;;;;;;5057458;28;20525;-71
2021/12/31 02:13:09;;;;;;;10.30;3.47;;;13.50;99.90;;;;;;5053911;28;20041;-72
2021/12/31 02:15:35;;;;;;;10.63;3.97;;;13.50;99.90;;;;;;5050467;28;20387;-74
2021/12/31 02:18:03;;;;;;;9.00;4.35;;;13.60;99.90;;;;;;5037152;28;20033;-72
2021/12/31 02:20:44;;;;;;;8.20;3.90;;;13.60;99.90;;;;;;5036891;28;20142;-74
2021/12/31 02:23:25;;;;;;;8.75;4.20;;;13.50;99.90;;;;;;5037238;28;20041;-71
2021/12/31 02:25:52;;;;;;;9.18;4.38;;;13.60;99.90;;;;;;5045992;28;20387;-71
2021/12/31 02:28:18;;;;;;;11.75;4.50;;;13.60;99.90;;;;;;5056862;28;20127;-71
2021/12/31 02:30:45;;;;;;;11.68;4.70;;;13.50;99.90;;;;;;5056785;28;20087;-72
2021/12/31 02:33:11;;;;;;;10.38;5.10;;;13.50;99.90;;;;;;5056221;28;20503;-71
2021/12/31 02:35:38;;;;;;;12.05;4.65;;;13.60;99.90;;;;;;5056817;28;20535;-71
2021/12/31 02:38:06;;;;;;;8.38;4.55;;;13.60;99.90;;;;;;5057026;28;20360;-71
2021/12/31 02:40:33;;;;;;;12.35;5.78;;;13.60;99.90;;;;;;5056678;28;20475;-72
2021/12/31 02:42:59;;;;;;;8.38;4.78;;;13.60;99.90;;;;;;5056573;28;20078;-73
2021/12/31 02:45:30;;;;;;;8.45;5.20;;;13.60;99.90;;;;;;5056554;28;20044;-74
2021/12/31 02:47:57;;;;;;;9.00;4.93;;;13.60;99.90;;;;;;5056618;28;20497;-71
2021/12/31 02:50:33;;;;;;;10.68;4.97;;;13.60;99.90;;;;;;5056742;28;20037;-71
2021/12/31 02:53:00;;;;;;;10.02;4.55;;;13.60;99.90;;;;;;5056023;28;20048;-73
2021/12/31 02:55:30;;;;;;;8.23;4.63;;;13.60;99.90;;;;;;5052684;28;20036;-72
2021/12/31 02:57:56;;;;;;;8.23;4.60;;;13.70;99.90;;;;;;5035498;28;20170;-72
2021/12/31 03:00:22;;;;;;;11.88;5.30;;;13.70;99.90;;;;;;5053165;28;20051;-71
2021/12/31 03:02:49;;;;;;;9.05;5.15;;;13.70;99.90;;;;;;5053512;28;20072;-71
2021/12/31 03:05:16;;;;;;;11.50;6.07;;;13.70;99.90;;;;;;5019760;28;20089;-72
2021/12/31 03:07:45;;;;;;;7.95;5.65;;;13.70;99.90;;;;;;5053027;28;20076;-72
2021/12/31 03:10:11;;;;;;;10.25;5.72;;;13.80;99.90;;;;;;5036443;28;20041;-75
2021/12/31 03:12:39;;;;;;;9.55;5.85;;;13.80;99.90;;;;;;5045320;28;20060;-71
2021/12/31 03:15:05;;;;;;;9.25;5.65;;;13.80;99.90;;;;;;5056164;28;20520;-73
2021/12/31 03:17:32;;;;;;;9.00;5.57;;;13.80;99.90;;;;;;5039306;28;20475;-73
2021/12/31 03:20:09;;;;;;;7.90;5.40;;;13.80;99.90;;;;;;5056212;28;20086;-75
2021/12/31 03:22:35;;;;;;;9.05;5.63;;;13.80;99.90;;;;;;5056093;28;20086;-74
2021/12/31 03:25:01;;;;;;;10.40;5.22;;;13.90;99.90;;;;;;5055114;28;20045;-71
2021/12/31 03:27:26;;;;;;;8.38;4.63;;;13.80;99.90;;;;;;5055981;28;20044;-72
2021/12/31 03:29:52;;;;;;;8.50;4.90;;;13.90;99.90;;;;;;5039200;28;20079;-71
2021/12/31 03:32:17;;;;;;;9.00;5.05;;;13.80;99.90;;;;;;5056380;28;20044;-73
2021/12/31 03:34:43;;;;;;;8.73;5.20;;;13.90;99.90;;;;;;5055989;28;20049;-71
2021/12/31 03:37:09;;;;;;;9.43;5.13;;;13.80;99.90;;;;;;5039221;28;20080;-71
2021/12/31 03:39:34;;;;;;;7.63;4.85;;;13.90;99.90;;;;;;5055521;28;20041;-71
2021/12/31 03:42:00;;;;;;;8.88;4.88;;;13.90;99.90;;;;;;5055801;28;20040;-72
2021/12/31 03:44:26;;;;;;;8.43;4.90;;;13.90;99.90;;;;;;5055521;28;20044;-71
2021/12/31 03:46:51;;;;;;;6.63;4.63;;;13.90;99.90;;;;;;5056237;28;20132;-74
2021/12/31 03:49:17;;;;;;;6.90;4.88;;;13.90;99.90;;;;;;5055377;28;20056;-71
2021/12/31 03:51:42;;;;;;;8.75;5.88;;;13.90;99.90;;;;;;5039091;28;20457;-71
2021/12/31 03:54:08;;;;;;;9.75;5.05;;;13.90;99.90;;;;;;5055486;28;20044;-71
2021/12/31 03:56:34;;;;;;;13.35;4.95;;;13.90;99.90;;;;;;5055396;28;20438;-71
2021/12/31 03:59:00;;;;;;;9.75;4.93;;;13.80;99.90;;;;;;5055468;28;20139;-73
2021/12/31 04:01:27;;;;;;;6.53;4.28;;;13.80;99.90;;;;;;5039125;28;20144;-72
2021/12/31 04:03:53;;;;;;;8.43;5.20;;;13.90;99.90;;;;;;5055196;28;20036;-71
2021/12/31 04:06:21;;;;;;;8.38;5.20;;;13.80;99.90;;;;;;5055625;28;20042;-72
2021/12/31 04:08:47;;;;;;;10.82;5.72;;;13.90;99.90;;;;;;5055271;28;20044;-74
2021/12/31 04:11:13;;;;;;;7.43;5.60;;;13.90;99.90;;;;;;5058323;28;20463;-74
2021/12/31 04:13:39;;;;;;;9.90;5.57;;;13.80;99.90;;;;;;5060252;28;20046;-72
2021/12/31 04:16:05;;;;;;;9.45;5.50;;;13.80;99.90;;;;;;5042924;28;20040;-71
2021/12/31 04:18:31;;;;;;;12.13;5.80;;;13.80;99.90;;;;;;5043003;28;20093;-74
2021/12/31 04:20:58;;;;;;;8.57;5.55;;;13.80;99.90;;;;;;5042303;28;20068;-72
2021/12/31 04:23:29;;;;;;;9.35;5.43;;;13.80;99.90;;;;;;5042365;28;20032;-71
2021/12/31 04:25:56;;;;;;;9.75;5.40;;;13.80;99.90;;;;;;5042096;28;20075;-72
2021/12/31 04:28:22;;;;;;;8.55;5.20;;;13.90;99.90;;;;;;5055663;28;20487;-72
2021/12/31 04:30:48;;;;;;;10.27;5.60;;;13.80;99.90;;;;;;5042071;28;20062;-72
2021/12/31 04:33:13;;;;;;;9.95;5.05;;;13.90;99.90;;;;;;5059286;28;20053;-73
2021/12/31 04:35:39;;;;;;;8.60;5.35;;;13.90;99.90;;;;;;5059180;28;20044;-72
2021/12/31 04:38:05;;;;;;;7.93;4.70;;;13.90;99.90;;;;;;5058559;28;20041;-72
2021/12/31 04:40:31;;;;;;;7.40;4.60;;;13.90;99.90;;;;;;5058817;28;20472;-74
2021/12/31 04:42:56;;;;;;;8.38;4.50;;;13.90;99.90;;;;;;5058033;28;20040;-72
2021/12/31 04:45:23;;;;;;;8.43;4.22;;;13.90;99.90;;;;;;5059478;28;20478;-72
2021/12/31 04:47:49;;;;;;;8.50;4.35;;;13.80;99.90;;;;;;5058972;28;20087;-72
2021/12/31 04:50:14;;;;;;;6.38;4.20;;;13.90;99.90;;;;;;5058903;28;20071;-72
2021/12/31 04:52:41;;;;;;;8.35;3.97;;;13.80;99.90;;;;;;5058433;28;20043;-74
2021/12/31 04:55:07;;;;;;;6.68;3.50;;;13.80;99.90;;;;;;5058964;28;20063;-73
2021/12/31 04:57:33;;;;;;;7.10;3.20;;;13.90;99.90;;;;;;5058876;28;20041;-71
2021/12/31 04:59:59;;;;;;;5.65;3.33;;;13.80;99.90;;;;;;5058904;28;20048;-72
2021/12/31 05:02:24;;;;;;;6.60;2.95;;;13.80;99.90;;;;;;5058827;28;20055;-71
2021/12/31 05:04:50;;;;;;;5.95;2.90;;;13.90;99.90;;;;;;5058597;28;20398;-71
2021/12/31 05:07:15;;;;;;;6.82;2.83;;;13.90;99.90;;;;;;5041848;28;20059;-74
2021/12/31 05:09:41;;;;;;;8.20;2.70;;;13.90;99.90;;;;;;5054587;28;20099;-72
2021/12/31 05:12:12;;;;;;;6.97;2.30;;;14.00;99.90;;;;;;5038779;28;20493;-72
2021/12/31 05:14:37;;;;;;;5.32;2.40;;;14.00;99.90;;;;;;5038570;28;20056;-74
2021/12/31 05:17:03;;;;;;;5.60;2.33;;;14.00;99.90;;;;;;5038766;28;20031;-72
2021/12/31 05:19:29;;;;;;;5.32;2.60;;;14.00;99.90;;;;;;5038303;28;20426;-72
2021/12/31 05:21:54;;;;;;;5.63;2.13;;;14.00;99.90;;;;;;5021048;28;20128;-72
2021/12/31 05:24:20;;;;;;;5.00;2.33;;;14.00;99.90;;;;;;5021687;28;20037;-72
2021/12/31 05:26:46;;;;;;;5.53;2.65;;;13.90;99.90;;;;;;5038538;28;20041;-73
2021/12/31 05:29:11;;;;;;;5.70;1.98;;;14.00;99.90;;;;;;5038318;28;20131;-72
2021/12/31 05:31:37;;;;;;;5.40;2.42;;;14.00;99.90;;;;;;5038249;28;20410;-72
2021/12/31 05:34:03;;;;;;;4.45;2.38;;;14.00;99.90;;;;;;5038811;28;20376;-72
2021/12/31 05:36:29;;;;;;;6.40;1.73;;;14.00;99.90;;;;;;5053649;28;20423;-72
2021/12/31 05:38:54;;;;;;;5.05;2.10;;;14.00;99.90;;;;;;5038164;28;20391;-72
2021/12/31 05:41:20;;;;;;;3.90;2.20;;;14.00;99.90;;;;;;5038106;28;20083;-72
2021/12/31 05:43:46;;;;;;;5.50;1.80;;;13.90;99.90;;;;;;5037841;28;20131;-72
2021/12/31 05:46:11;;;;;;;5.55;2.88;;;13.90;99.90;;;;;;5038208;28;20041;-74
2021/12/31 05:48:37;;;;;;;5.72;1.85;;;13.80;99.90;;;;;;5021127;28;20091;-72
2021/12/31 05:51:03;;;;;;;3.97;1.95;;;13.80;99.90;;;;;;5037895;28;20044;-72
2021/12/31 05:53:29;;;;;;;4.00;2.30;;;13.80;99.90;;;;;;5037431;28;20051;-72
2021/12/31 05:55:55;;;;;;;3.42;2.20;;;13.70;99.90;;;;;;5037971;28;20080;-72
2021/12/31 05:58:20;;;;;;;4.45;2.40;;;13.60;99.90;;;;;;5029452;28;20088;-74
2021/12/31 06:00:46;;;;;;;6.97;2.50;;;13.60;99.90;;;;;;5017857;28;20057;-72
2021/12/31 06:03:11;;;;;;;6.43;2.60;;;13.60;99.90;;;;;;5017835;28;20046;-72
2021/12/31 06:05:37;;;;;;;5.55;2.30;;;13.50;99.90;;;;;;5030797;28;20064;-72
2021/12/31 06:08:03;;;;;;;5.28;2.13;;;13.50;99.90;;;;;;5037462;28;20076;-72
2021/12/31 06:10:31;;;;;;;7.13;2.42;;;13.50;99.90;;;;;;5037591;28;20063;-72
2021/12/31 06:12:59;;;;;;;5.68;2.00;;;13.50;99.90;;;;;;5037556;28;20045;-75
2021/12/31 06:15:27;;;;;;;3.83;2.10;;;13.40;99.90;;;;;;5037297;28;20387;-72
2021/12/31 06:17:53;;;;;;;4.70;2.15;;;13.40;99.90;;;;;;5037176;28;20523;-72
2021/12/31 06:20:19;;;;;;;4.07;2.10;;;13.40;99.90;;;;;;5036350;28;20079;-74
2021/12/31 06:22:45;;;;;;;7.57;2.03;;;13.40;99.90;;;;;;5020716;28;20068;-72
2021/12/31 06:25:11;;;;;;;5.95;2.03;;;13.40;99.90;;;;;;5036978;28;20384;-74
2021/12/31 06:27:36;;;;;;;4.05;2.33;;;13.40;99.90;;;;;;5037622;28;20130;-72
2021/12/31 06:30:06;;;;;;;4.85;2.17;;;13.40;99.90;;;;;;5033471;28;20073;-75
2021/12/31 06:32:32;;;;;;;4.70;2.22;;;13.40;99.90;;;;;;5034396;28;20090;-74
2021/12/31 06:34:57;;;;;;;5.97;2.15;;;13.40;99.90;;;;;;5036570;28;20123;-72
2021/12/31 06:37:23;;;;;;;7.38;2.30;;;13.40;99.90;;;;;;5020675;28;20127;-72
2021/12/31 06:39:49;;;;;;;6.22;2.70;;;13.30;99.90;;;;;;5037244;28;20127;-73
2021/12/31 06:42:14;;;;;;;7.05;2.60;;;13.30;99.90;;;;;;5036901;28;20424;-73
2021/12/31 06:44:40;;;;;;;6.13;2.40;;;13.30;99.90;;;;;;5036982;28;20079;-73
2021/12/31 06:47:06;;;;;;;5.32;2.28;;;13.30;99.90;;;;;;5036716;28;20048;-72
2021/12/31 06:49:32;;;;;;;5.35;2.90;;;13.20;99.90;;;;;;5036367;28;20037;-72
2021/12/31 06:51:58;;;;;;;6.93;2.90;;;13.20;99.90;;;;;;5036950;28;20174;-74
2021/12/31 06:54:24;;;;;;;7.40;2.70;;;13.10;99.90;;;;;;5037280;28;20045;-72
2021/12/31 06:56:49;;;;;;;7.07;2.75;;;13.10;99.90;;;;;;5020121;28;20213;-72
2021/12/31 06:59:15;;;;;;;5.78;2.80;;;13.10;99.90;;;;;;5051973;28;20052;-71
2021/12/31 07:01:41;;;;;;;9.45;2.80;;;13.10;99.90;;;;;;5056282;28;20339;-73
2021/12/31 07:04:07;;;;;;;7.57;2.55;;;13.10;99.90;;;;;;5055781;28;20512;-74
2021/12/31 07:06:32;;;;;;;7.47;3.13;;;13.10;99.90;;;;;;5057196;28;20047;-73
2021/12/31 07:08:58;;;;;;;7.95;3.00;;;13.00;99.90;;;;;;5056084;28;20044;-72
2021/12/31 07:11:24;;;;;;;5.45;3.40;;;13.00;99.90;;;;;;5056104;28;20079;-73
2021/12/31 07:13:50;;;;;;;6.93;3.08;;;13.00;99.90;;;;;;5056229;28;20356;-73
2021/12/31 07:16:16;;;;;;;6.35;3.30;;;13.00;99.90;;;;;;5056012;28;20080;-73
2021/12/31 07:18:41;;;;;;;7.35;3.17;;;13.00;99.90;;;;;;5039186;28;20082;-72
2021/12/31 07:21:07;;;;;;;7.75;3.50;;;13.00;99.90;;;;;;5056292;28;20755;-72
2021/12/31 07:23:33;;;;;;;6.03;3.15;;;12.90;99.90;;;;;;5056387;28;20036;-72
2021/12/31 07:25:59;;;;;;;5.90;3.20;;;12.90;99.90;;;;;;5055727;28;20140;-72
2021/12/31 07:28:24;;;;;;;7.63;3.33;;;12.90;99.90;;;;;;5039074;28;20043;-72
2021/12/31 07:30:50;;;;;;;8.07;3.67;;;12.90;99.90;;;;;;5055909;28;20036;-74
2021/12/31 07:33:18;;;;;;;8.20;3.65;;;12.90;99.90;;;;;;5055680;28;20052;-74
2021/12/31 07:35:45;;;;;;;6.82;3.42;;;12.80;99.90;;;;;;5056183;28;20044;-72
2021/12/31 07:38:19;;;;;;;6.22;3.00;;;12.80;99.90;;;;;;5039027;28;20083;-72
2021/12/31 07:40:45;;;;;;;5.13;3.40;;;12.80;99.90;;;;;;5055935;28;20032;-72
2021/12/31 07:43:11;;;;;;;7.57;3.53;;;12.70;99.90;;;;;;5055707;28;20127;-72
2021/12/31 07:45:38;;;;;;;6.35;3.28;;;12.70;99.90;;;;;;5055430;28;20037;-72
2021/12/31 07:48:04;;;;;;;7.30;3.00;;;12.60;99.90;;;;;;5055294;28;20157;-72
2021/12/31 07:50:31;;;;;;;8.48;4.00;;;12.60;99.90;;;;;;5038919;28;20084;-72
2021/12/31 07:52:57;;;;;;;7.70;3.28;;;12.60;99.90;;;;;;5055650;28;20498;-72
2021/12/31 07:55:22;;;;;;;10.18;3.88;;;12.60;99.90;;;;;;5055735;28;20044;-73
2021/12/31 07:57:48;;;;;;;7.85;3.67;;;12.60;99.90;;;;;;5051599;28;20060;-72
2021/12/31 08:00:14;;;;;;;6.03;3.40;;;12.60;99.90;;;;;;5035246;28;20445;-72
2021/12/31 08:02:40;;;;;;;7.00;3.55;;;12.60;99.90;;;;;;5035251;28;20090;-72
2021/12/31 08:05:07;;;;;;;8.32;3.60;;;12.60;99.90;;;;;;5019421;28;20041;-72
2021/12/31 08:07:32;;;;;;;9.35;3.92;;;12.60;99.90;;;;;;5035354;28;20045;-74
2021/12/31 08:09:58;;;;;;;7.82;3.92;;;12.60;99.90;;;;;;5035434;28;20383;-72
2021/12/31 08:12:23;;;;;;;8.75;4.05;;;12.60;99.90;;;;;;5035778;28;20040;-72
2021/12/31 08:14:49;;;;;;;8.00;3.65;;;12.60;99.90;;;;;;5035266;28;20059;-72
2021/12/31 08:17:15;;;;;;;6.93;3.83;;;12.70;99.90;;;;;;5035189;28;20040;-72
2021/12/31 08:19:41;;;;;;;6.15;3.40;;;12.60;99.90;;;;;;5031522;28;20499;-72
2021/12/31 08:22:07;;;;;;;5.22;3.03;;;12.70;99.90;;;;;;5014398;28;20045;-73
2021/12/31 08:24:33;;;;;;;8.05;3.60;;;12.70;99.90;;;;;;5030932;28;20404;-73
2021/12/31 08:26:59;;;;;;;4.95;3.10;;;12.70;99.90;;;;;;5015849;28;20072;-73
2021/12/31 08:29:24;;;;;;;6.57;3.55;;;12.70;99.90;;;;;;5015571;28;20073;-74
2021/12/31 08:31:50;;;;;;;7.00;3.90;;;12.80;99.90;;;;;;4999022;28;20041;-73
2021/12/31 08:34:16;;;;;;;9.07;3.95;;;12.70;99.90;;;;;;5015540;28;20095;-74
2021/12/31 08:36:42;;;;;;;7.55;3.72;;;12.80;99.90;;;;;;5015730;28;20041;-75
2021/12/31 08:39:09;;;;;;;8.20;3.45;;;12.80;99.90;;;;;;5015857;28;20088;-72
2021/12/31 08:41:39;;;;;;;7.28;3.75;;;12.80;99.90;;;;;;5015776;28;20047;-72
2021/12/31 08:44:06;;;;;;;8.93;3.33;;;12.80;99.90;;;;;;5015346;28;20464;-72
2021/12/31 08:46:34;;;;;;;5.90;3.40;;;12.90;99.90;;;;;;5015170;28;20045;-71
2021/12/31 08:48:59;;;;;;;6.97;3.42;;;12.90;99.90;;;;;;5021453;28;20037;-72
2021/12/31 08:51:26;;;;;;;7.22;3.60;;;12.90;99.90;;;;;;5031637;28;20041;-73
2021/12/31 08:53:52;;;;;;;6.32;3.65;;;12.90;99.90;;;;;;4999446;28;20129;-72
2021/12/31 08:56:18;;;;;;;7.20;3.60;;;12.90;99.90;;;;;;5016480;28;20064;-73
2021/12/31 08:58:44;;;;;;;6.38;3.55;;;12.90;99.90;;;;;;5030438;28;20174;-72
2021/12/31 09:01:09;;;;;;;5.15;3.35;;;12.90;99.90;;;;;;5038498;28;20387;-73
2021/12/31 09:03:35;;;;;;;6.60;3.60;;;12.90;99.90;;;;;;5038628;28;20041;-72
2021/12/31 09:06:04;;;;;;;8.02;3.88;;;12.90;99.90;;;;;;5039260;28;20590;-74
2021/12/31 09:08:29;;;;;;;6.47;3.47;;;12.90;99.90;;;;;;5038512;28;20132;-73
2021/12/31 09:10:55;;;;;;;6.25;3.55;;;12.90;99.90;;;;;;5038510;28;20123;-72
2021/12/31 09:13:21;;;;;;;7.03;3.65;;;13.00;99.90;;;;;;5038384;28;20041;-72
2021/12/31 09:15:47;;;;;;;6.13;3.40;;;13.00;99.90;;;;;;5038499;28;20040;-74
2021/12/31 09:18:13;;;;;;;7.68;3.65;;;12.90;99.90;;;;;;5022530;28;20037;-73
2021/12/31 09:20:40;;;;;;;9.60;3.72;;;13.00;99.90;;;;;;5039768;28;20040;-74
2021/12/31 09:23:05;;;;;;;7.00;3.70;;;13.00;99.90;;;;;;5058023;28;20487;-74
2021/12/31 09:25:31;;;;;;;10.52;4.50;;;13.00;99.90;;;;;;5041618;28;20131;-75
2021/12/31 09:27:57;;;;;;;7.15;4.55;;;13.00;99.90;;;;;;5058295;28;20041;-73
2021/12/31 09:30:22;;;;;;;8.73;3.72;;;13.00;99.90;;;;;;5041269;28;20094;-74
2021/12/31 09:32:48;;;;;;;7.93;4.20;;;13.00;99.90;;;;;;5058288;28;20040;-73
2021/12/31 09:35:14;;;;;;;9.23;4.30;;;12.90;99.90;;;;;;5058372;28;20048;-75
2021/12/31 09:37:40;;;;;;;8.88;5.07;;;13.00;99.90;;;;;;5041410;28;20123;-73
2021/12/31 09:40:07;;;;;;;7.07;3.65;;;13.00;99.90;;;;;;5041343;28;20115;-72
2021/12/31 09:42:33;;;;;;;8.40;5.03;;;13.00;99.90;;;;;;5057752;28;20079;-74
2021/12/31 09:44:59;;;;;;;9.25;4.35;;;13.00;99.90;;;;;;5040591;28;20052;-74
2021/12/31 09:47:24;;;;;;;11.25;5.32;;;13.00;99.90;;;;;;5057400;28;20049;-74
2021/12/31 09:49:50;;;;;;;7.47;4.20;;;13.00;99.90;;;;;;5057800;28;20418;-73
2021/12/31 09:52:17;;;;;;;5.97;3.85;;;13.00;99.90;;;;;;5058229;28;20383;-73
2021/12/31 09:54:45;;;;;;;9.57;4.03;;;13.00;99.90;;;;;;5041012;28;20055;-72
2021/12/31 09:57:15;;;;;;;8.50;4.30;;;13.00;99.90;;;;;;5057448;28;20123;-74
2021/12/31 09:59:41;;;;;;;6.38;3.72;;;13.00;99.90;;;;;;5037753;28;20049;-73
2021/12/31 10:02:09;;;;;;;6.68;3.53;;;13.00;99.90;;;;;;5037820;28;20056;-73
2021/12/31 10:04:57;;;;;;;7.00;3.42;;;13.00;99.90;;;;;;5037382;28;20368;-73
2021/12/31 10:07:24;;;;;;;5.97;3.90;;;13.00;99.90;;;;;;5037161;28;20040;-75
2021/12/31 10:10:03;;;;;;;6.45;3.75;;;13.00;99.90;;;;;;5036446;28;20056;-73
2021/12/31 10:12:57;;;;;;;7.63;3.97;;;13.00;99.90;;;;;;5038054;28;20045;-73
2021/12/31 10:15:24;;;;;;;8.32;3.97;;;13.00;99.90;;;;;;5037338;28;20315;-73
2021/12/31 10:17:51;;;;;;;7.20;3.95;;;13.00;99.90;;;;;;5020749;28;20390;-74
2021/12/31 10:20:17;;;;;;;9.60;4.15;;;13.00;99.90;;;;;;5036991;28;20041;-72
2021/12/31 10:22:45;;;;;;;7.25;3.88;;;13.00;99.90;;;;;;5020705;28;20045;-72
2021/12/31 10:25:22;;;;;;;7.15;3.83;;;13.00;99.90;;;;;;5036922;28;20041;-73
2021/12/31 10:28:09;;;;;;;8.05;4.75;;;13.00;99.90;;;;;;5037250;28;20048;-73
2021/12/31 10:30:35;;;;;;;11.52;6.40;;;13.00;99.90;;;;;;5036981;28;20052;-73
2021/12/31 10:33:01;;;;;;;8.65;4.60;;;13.00;99.90;;;;;;5037083;28;20056;-73
2021/12/31 10:35:36;;;;;;;9.07;4.85;;;13.00;99.90;;;;;;5036938;28;20045;-76
2021/12/31 10:38:04;;;;;;;7.47;4.20;;;13.00;99.90;;;;;;5036640;28;20044;-73
2021/12/31 10:40:36;;;;;;;6.43;3.90;;;12.90;99.90;;;;;;5020697;28;20053;-73
2021/12/31 10:43:18;;;;;;;5.95;4.20;;;13.00;99.90;;;;;;5036660;28;20083;-75
2021/12/31 10:46:02;;;;;;;9.38;4.97;;;12.90;99.90;;;;;;5036634;28;20083;-75
2021/12/31 10:48:38;;;;;;;8.60;4.60;;;13.00;99.90;;;;;;5036993;28;20387;-73
2021/12/31 10:51:04;;;;;;;8.15;4.13;;;13.00;99.90;;;;;;5036705;28;20049;-73
2021/12/31 10:53:33;;;;;;;12.00;4.10;;;12.90;99.90;;;;;;5020103;28;20075;-73
2021/12/31 10:56:11;;;;;;;9.13;4.10;;;13.00;99.90;;;;;;5036463;28;20053;-73
2021/12/31 10:58:38;;;;;;;6.35;4.13;;;13.00;99.90;;;;;;5036056;28;20095;-74
2021/12/31 11:01:07;;;;;;;8.57;4.40;;;13.00;99.90;;;;;;5020346;28;20051;-74
2021/12/31 11:03:38;;;;;;;8.35;4.25;;;13.00;99.90;;;;;;5019905;28;20044;-82
2021/12/31 11:06:07;;;;;;;8.15;4.45;;;13.10;99.90;;;;;;5035678;28;20475;-73
2021/12/31 11:08:35;;;;;;;8.07;4.45;;;13.00;99.90;;;;;;5036526;28;20069;-73
2021/12/31 11:11:02;;;;;;;6.18;4.35;;;13.00;99.90;;;;;;5036290;28;20136;-75
2021/12/31 11:13:30;;;;;;;8.10;4.47;;;13.00;99.90;;;;;;5036096;28;20045;-73
2021/12/31 11:15:58;;;;;;;9.30;4.80;;;13.00;99.90;;;;;;5036144;28;20120;-73
2021/12/31 11:18:24;;;;;;;9.93;4.85;;;13.00;99.90;;;;;;5035218;28;20091;-73
2021/12/31 11:21:03;;;;;;;10.18;5.47;;;13.00;99.90;;;;;;5031376;28;20037;-75
2021/12/31 11:23:32;;;;;;;7.47;4.33;;;13.10;99.90;;;;;;5029974;28;20037;-73
2021/12/31 11:26:13;;;;;;;8.35;5.13;;;13.10;99.90;;;;;;5021945;28;20041;-81
2021/12/31 11:28:44;;;;;;;12.13;5.65;;;13.00;99.90;;;;;;5015206;28;20080;-75
2021/12/31 11:31:18;;;;;;;9.45;5.47;;;13.00;99.90;;;;;;4999121;28;20037;-73
2021/12/31 11:33:46;;;;;;;9.38;5.63;;;13.00;99.90;;;;;;5015418;28;20099;-73
2021/12/31 11:36:13;;;;;;;15.13;6.00;;;13.00;99.90;;;;;;5011770;28;20360;-73
2021/12/31 11:38:42;;;;;;;13.63;8.77;;;13.00;99.90;;;;;;5031568;28;20060;-74
2021/12/31 11:41:21;;;;;;;11.18;6.00;;;13.00;99.90;;;;;;5033699;28;20044;-71
2021/12/31 11:44:06;;;;;;;14.50;6.97;;;13.00;99.90;;;;;;5028071;28;20068;-71
2021/12/31 11:46:34;;;;;;;11.55;7.20;;;13.00;99.90;;;;;;4998478;28;20157;-71
2021/12/31 11:49:01;;;;;;;10.55;5.72;;;12.90;99.90;;;;;;4998776;28;20135;-74
2021/12/31 11:51:34;;;;;;;9.85;6.22;;;12.90;99.90;;;;;;5015322;28;20345;-72
2021/12/31 11:54:00;;;;;;;11.18;5.38;;;12.90;99.90;;;;;;5015118;28;20041;-72
2021/12/31 11:56:43;;;;;;;8.85;5.45;;;12.80;99.90;;;;;;5012988;28;20146;-73
2021/12/31 11:59:19;;;;;;;10.93;6.82;;;12.90;99.90;;;;;;5035454;28;20052;-71
2021/12/31 12:01:47;;;;;;;9.00;5.78;;;12.90;99.90;;;;;;5034537;28;20041;-72
2021/12/31 12:04:35;;;;;;;12.15;5.95;;;12.90;99.90;;;;;;5036113;28;20045;-72
2021/12/31 12:07:41;;;;;;;12.70;6.93;;;12.80;99.90;;;;;;5052682;28;20036;-72
2021/12/31 12:10:10;;;;;;;15.63;7.43;;;12.90;99.90;;;;;;5054267;28;20377;-73
2021/12/31 12:12:37;;;;;;;8.05;6.20;;;12.80;99.90;;;;;;5038052;28;20040;-74
2021/12/31 12:15:04;;;;;;;13.00;6.40;;;12.90;99.90;;;;;;5054368;28;20053;-71
2021/12/31 12:17:29;;;;;;;8.38;5.95;;;12.80;99.90;;;;;;5054472;28;20045;-72
2021/12/31 12:20:01;;;;;;;13.35;6.85;;;12.90;99.90;;;;;;5054520;28;20043;-73
2021/12/31 12:22:37;;;;;;;13.88;6.57;;;12.90;99.90;;;;;;5028941;28;20124;-75
2021/12/31 12:25:06;;;;;;;10.00;6.15;;;12.90;99.90;;;;;;5038089;28;20036;-74
2021/12/31 12:27:33;;;;;;;13.07;6.75;;;12.90;99.90;;;;;;5054251;28;20570;-73
2021/12/31 12:30:03;;;;;;;9.95;6.05;;;12.80;99.90;;;;;;5054327;28;20043;-73
2021/12/31 12:32:33;;;;;;;;;;;12.80;99.90;;;;;;5057785;28;20094;-72
2021/12/31 12:35:11;;;;;;;14.38;7.38;;;12.80;99.90;;;;;;5057819;28;19923;-72
2021/12/31 12:37:36;;;;;;;11.57;7.07;;;12.80;99.90;;;;;;5058112;28;20540;-73
2021/12/31 12:40:04;;;;;;;14.30;8.10;;;12.80;99.90;;;;;;5058299;28;20544;-75
2021/12/31 12:42:29;;;;;;;15.13;8.35;;;12.70;99.90;;;;;;5057937;28;20365;-71
2021/12/31 12:45:04;;;;;;;15.13;9.27;;;12.60;99.90;;;;;;5057778;28;20478;-71
2021/12/31 12:47:30;;;;;;;17.88;10.27;;;12.60;99.90;;;;;;5057524;28;20082;-72